Terminal Aerodrome Forecast
Issued by NWS Cleveland, OH

Home | Current Version | Previous Version | Text Only | Print | Product List | Glossary Off
Versions: 1 2 3 4 5 6 7 8 9 10 11 12 13 14 15 16 17 18

000
FTUS41 KCLE 211700
TAFMFD
TAF
KMFD 211724Z 2118/2218 23009KT P6SM BKN250
     FM212000 22010G20KT P6SM OVC250
     FM220000 21010KT P6SM OVC100
     FM220400 22010KT P6SM -SHRA OVC050
     FM220700 22010KT P6SM OVC009
     FM221100 28012KT 4SM BR OVC007
     FM221300 29010G20KT P6SM OVC015
     FM221600 30010G20KT P6SM SCT250=

USA.gov is the U.S. government's official web portal to all federal, state and local government web resources and services.